createdAt,value
2017-11-17T00:00:02.287Z,87.17
2017-11-17T00:02:28.462Z,87.09
2017-11-17T00:04:54.628Z,86.52
2017-11-17T00:07:20.811Z,86.66
2017-11-17T00:09:47.031Z,87.43
2017-11-17T00:12:13.262Z,86.88
2017-11-17T00:14:39.417Z,87.49
2017-11-17T00:17:05.596Z,87.07
2017-11-17T00:19:31.751Z,86.23
2017-11-17T00:21:57.964Z,86.98
2017-11-17T00:24:24.159Z,86.85
2017-11-17T00:26:50.396Z,87.17
2017-11-17T00:29:16.591Z,87.06
2017-11-17T00:31:42.774Z,87.41
2017-11-17T00:34:08.963Z,87.59
2017-11-17T00:36:35.167Z,87.26
2017-11-17T00:39:01.385Z,87.61
2017-11-17T00:41:27.523Z,88.07
2017-11-17T00:43:53.725Z,87.47
2017-11-17T00:46:19.898Z,87.64
2017-11-17T00:48:46.050Z,87.83
2017-11-17T00:51:12.270Z,87.65
2017-11-17T00:53:38.441Z,86.96
2017-11-17T00:56:04.758Z,87.45
2017-11-17T00:58:31.007Z,87.12
2017-11-17T01:00:57.097Z,87.55
2017-11-17T01:03:23.287Z,87.23
2017-11-17T01:05:49.433Z,87.56
2017-11-17T01:08:15.619Z,87.79
2017-11-17T01:10:41.772Z,88.32
2017-11-17T01:13:08.023Z,88.39
2017-11-17T01:15:34.257Z,88.52
2017-11-17T01:18:00.592Z,88.22
2017-11-17T01:20:26.789Z,88.54
2017-11-17T01:22:52.974Z,88.88
2017-11-17T01:25:19.247Z,89.28
2017-11-17T01:27:45.926Z,89.38
2017-11-17T01:30:12.069Z,89.69
2017-11-17T01:32:38.217Z,89.83
2017-11-17T01:35:04.338Z,89.49
2017-11-17T01:37:30.444Z,89.37
2017-11-17T01:39:56.732Z,88.83
2017-11-17T01:42:22.873Z,88.75
2017-11-17T01:44:48.954Z,88.92
2017-11-17T01:47:15.072Z,89.62
2017-11-17T01:49:41.241Z,89.49
2017-11-17T01:52:07.384Z,89.90
2017-11-17T01:54:33.994Z,89.87
2017-11-17T01:57:00.111Z,90.98
2017-11-17T01:59:26.509Z,90.77
2017-11-17T02:01:52.694Z,90.41
2017-11-17T02:04:19.036Z,90.41
2017-11-17T02:06:45.177Z,90.72
2017-11-17T02:09:11.320Z,90.77
2017-11-17T02:11:38.070Z,91.26
2017-11-17T02:14:04.311Z,91.08
2017-11-17T02:16:30.475Z,90.49
2017-11-17T02:18:56.629Z,90.47
2017-11-17T02:21:22.752Z,90.36
2017-11-17T02:23:48.883Z,90.36
2017-11-17T02:26:15.034Z,90.43
2017-11-17T02:28:41.138Z,90.89
2017-11-17T02:31:07.237Z,90.80
2017-11-17T02:33:33.387Z,90.53
2017-11-17T02:35:59.513Z,90.68
2017-11-17T02:38:25.822Z,90.67
2017-11-17T02:40:51.945Z,90.72
2017-11-17T02:43:18.330Z,90.51
2017-11-17T02:45:44.815Z,90.50
2017-11-17T02:48:10.969Z,91.10
2017-11-17T02:50:37.543Z,91.06
2017-11-17T02:53:03.679Z,92.04
2017-11-17T02:55:29.782Z,91.98
2017-11-17T02:57:56.192Z,91.54
2017-11-17T03:00:22.248Z,91.58
2017-11-17T03:02:48.352Z,91.94
2017-11-17T03:05:14.456Z,92.28
2017-11-17T03:07:40.609Z,91.96
2017-11-17T03:10:06.717Z,91.44
2017-11-17T03:12:32.802Z,91.63
2017-11-17T03:14:58.895Z,91.58
2017-11-17T03:17:24.997Z,91.52
2017-11-17T03:19:51.194Z,91.27
2017-11-17T03:22:17.383Z,91.59
2017-11-17T03:24:43.497Z,91.84
2017-11-17T03:27:09.588Z,92.24
2017-11-17T03:29:36.261Z,92.34
2017-11-17T03:32:02.477Z,92.65
2017-11-17T03:34:28.601Z,92.73
2017-11-17T03:36:54.829Z,92.73
2017-11-17T03:39:20.957Z,92.74
2017-11-17T03:41:47.213Z,92.46
2017-11-17T03:44:13.300Z,92.25
2017-11-17T03:46:39.617Z,92.24
2017-11-17T03:49:06.005Z,92.09
2017-11-17T03:51:32.161Z,91.81
2017-11-17T03:53:58.319Z,91.86
2017-11-17T03:56:24.436Z,91.61
2017-11-17T03:58:50.508Z,91.89
2017-11-17T04:01:16.636Z,91.77
2017-11-17T04:03:42.764Z,92.16
2017-11-17T04:06:08.921Z,91.97
2017-11-17T04:08:35.119Z,92.04
2017-11-17T04:11:01.289Z,92.31
2017-11-17T04:13:27.793Z,92.43
2017-11-17T04:15:53.971Z,92.57
2017-11-17T04:18:20.065Z,92.40
2017-11-17T04:20:46.182Z,92.45
2017-11-17T04:23:12.302Z,92.52
2017-11-17T04:25:38.785Z,92.21
2017-11-17T04:28:04.872Z,92.46
2017-11-17T04:30:31.074Z,92.51
2017-11-17T04:32:57.252Z,92.63
2017-11-17T04:35:23.413Z,92.82
2017-11-17T04:37:49.561Z,92.76
2017-11-17T04:40:15.684Z,92.67
2017-11-17T04:42:41.857Z,92.58
2017-11-17T04:45:07.953Z,92.27
2017-11-17T04:47:34.080Z,92.20
2017-11-17T04:50:00.191Z,91.85
2017-11-17T04:52:26.366Z,92.05
2017-11-17T04:54:52.475Z,92.39
2017-11-17T04:57:18.576Z,92.28
2017-11-17T04:59:44.704Z,92.19
2017-11-17T05:02:10.782Z,92.34
2017-11-17T05:04:36.947Z,92.61
2017-11-17T05:07:03.560Z,92.78
2017-11-17T05:09:29.742Z,92.83
2017-11-17T05:11:55.852Z,93.19
2017-11-17T05:14:21.960Z,93.51
2017-11-17T05:16:48.112Z,93.62
2017-11-17T05:19:15.365Z,93.68
2017-11-17T05:21:41.549Z,94.10
2017-11-17T05:24:07.661Z,93.37
2017-11-17T05:26:33.763Z,93.30
2017-11-17T05:29:00.173Z,93.71
2017-11-17T05:31:26.272Z,93.61
2017-11-17T05:33:52.360Z,93.84
2017-11-17T05:36:18.529Z,94.01
2017-11-17T05:38:44.699Z,93.96
2017-11-17T05:41:10.814Z,94.10
2017-11-17T05:43:36.976Z,94.12
2017-11-17T05:46:03.069Z,94.06
2017-11-17T05:48:29.180Z,94.02
2017-11-17T05:50:55.259Z,93.77
2017-11-17T05:53:21.347Z,93.63
2017-11-17T05:55:47.504Z,93.79
2017-11-17T05:58:13.694Z,93.41
2017-11-17T06:00:39.884Z,93.15
2017-11-17T06:03:05.994Z,92.89
2017-11-17T06:05:32.095Z,92.91
2017-11-17T06:07:58.231Z,92.85
2017-11-17T06:10:24.306Z,92.72
2017-11-17T06:12:50.453Z,92.74
2017-11-17T06:15:16.971Z,92.57
2017-11-17T06:17:43.083Z,92.71
2017-11-17T06:20:09.175Z,92.91
2017-11-17T06:22:35.282Z,92.98
2017-11-17T06:25:01.405Z,92.86
2017-11-17T06:27:27.515Z,92.72
2017-11-17T06:29:53.615Z,92.60
2017-11-17T06:32:19.735Z,92.89
2017-11-17T06:34:45.890Z,93.18
2017-11-17T06:37:11.965Z,92.64
2017-11-17T06:39:38.068Z,92.31
2017-11-17T06:42:04.228Z,92.40
2017-11-17T06:44:30.293Z,92.47
2017-11-17T06:46:56.384Z,92.61
2017-11-17T06:49:22.464Z,92.98
2017-11-17T06:51:48.566Z,93.43
2017-11-17T06:54:14.815Z,92.74
2017-11-17T06:56:42.829Z,92.41
2017-11-17T06:59:09.721Z,92.50
2017-11-17T07:01:35.801Z,92.11
2017-11-17T07:04:01.876Z,92.19
2017-11-17T07:06:28.007Z,92.29
2017-11-17T07:08:54.108Z,92.38
2017-11-17T07:11:20.303Z,92.29
2017-11-17T07:13:46.441Z,92.57
2017-11-17T07:16:12.573Z,92.85
2017-11-17T07:18:38.965Z,92.88
2017-11-17T07:21:05.056Z,92.97
2017-11-17T07:23:31.156Z,93.08
2017-11-17T07:25:57.312Z,93.15
2017-11-17T07:28:23.482Z,92.96
2017-11-17T07:30:49.660Z,93.17
2017-11-17T07:33:15.750Z,93.12
2017-11-17T07:35:41.806Z,93.64
2017-11-17T07:38:07.947Z,93.13
2017-11-17T07:40:34.019Z,92.98
2017-11-17T07:43:00.135Z,93.02
2017-11-17T07:45:26.249Z,93.27
2017-11-17T07:47:52.387Z,93.21
2017-11-17T07:50:19.054Z,93.05
2017-11-17T07:52:45.377Z,93.02
2017-11-17T07:55:11.504Z,92.94
2017-11-17T07:57:37.593Z,92.99
2017-11-17T08:00:04.126Z,92.78
2017-11-17T08:02:30.250Z,92.98
2017-11-17T08:04:56.342Z,92.86
2017-11-17T08:07:22.396Z,92.67
2017-11-17T08:09:48.551Z,93.37
2017-11-17T08:12:14.678Z,92.89
2017-11-17T08:14:40.724Z,93.09
2017-11-17T08:17:18.972Z,93.19
2017-11-17T08:19:45.228Z,92.84
2017-11-17T08:22:11.320Z,92.74
2017-11-17T08:24:37.421Z,93.08
2017-11-17T08:27:03.543Z,92.77
2017-11-17T08:29:29.632Z,92.37
2017-11-17T08:31:55.723Z,93.44
2017-11-17T08:34:21.910Z,92.69
2017-11-17T08:36:48.064Z,92.48
2017-11-17T08:39:14.151Z,91.94
2017-11-17T08:41:40.249Z,93.14
2017-11-17T08:44:06.377Z,92.06
2017-11-17T08:46:32.498Z,91.71
2017-11-17T08:48:58.770Z,92.06
2017-11-17T08:51:24.876Z,92.46
2017-11-17T08:53:50.968Z,93.12
2017-11-17T08:56:17.024Z,92.49
2017-11-17T08:58:43.171Z,91.92
2017-11-17T09:01:09.370Z,91.76
2017-11-17T09:03:35.592Z,91.81
2017-11-17T09:06:01.735Z,92.68
2017-11-17T09:08:27.817Z,92.19
2017-11-17T09:10:53.981Z,92.18
2017-11-17T09:13:20.431Z,92.29
2017-11-17T09:15:46.528Z,92.12
2017-11-17T09:18:12.985Z,92.17
2017-11-17T09:20:39.125Z,92.53
2017-11-17T09:23:05.394Z,93.26
2017-11-17T09:25:31.538Z,92.62
2017-11-17T09:27:57.697Z,92.35
2017-11-17T09:30:23.784Z,92.08
2017-11-17T09:32:49.957Z,92.59
2017-11-17T09:35:16.220Z,92.62
2017-11-17T09:37:42.353Z,92.48
2017-11-17T09:40:09.056Z,92.77
2017-11-17T09:42:35.603Z,92.63
2017-11-17T09:45:01.747Z,92.40
2017-11-17T09:47:28.344Z,92.82
2017-11-17T09:49:54.532Z,92.64
2017-11-17T09:52:20.662Z,92.17
2017-11-17T09:54:47.436Z,92.43
2017-11-17T09:57:13.960Z,92.22
2017-11-17T09:59:40.126Z,91.83
2017-11-17T10:02:06.861Z,92.12
2017-11-17T10:04:32.976Z,91.67
2017-11-17T10:06:59.090Z,91.20
2017-11-17T10:09:25.244Z,91.83
2017-11-17T10:11:51.318Z,91.62
2017-11-17T10:14:17.420Z,91.65
2017-11-17T10:16:43.866Z,91.96
2017-11-17T10:19:10.125Z,91.73
2017-11-17T10:21:36.304Z,92.02
2017-11-17T10:24:02.847Z,92.00
2017-11-17T10:26:28.965Z,91.75
2017-11-17T10:28:55.108Z,92.12
2017-11-17T10:31:21.571Z,92.61
2017-11-17T10:33:47.701Z,91.30
2017-11-17T10:36:13.921Z,91.78
2017-11-17T10:38:40.396Z,91.83
2017-11-17T10:41:06.476Z,91.76
2017-11-17T10:43:32.641Z,92.50
2017-11-17T10:45:59.175Z,92.75
2017-11-17T10:48:25.260Z,91.13
2017-11-17T10:50:51.354Z,91.33
2017-11-17T10:53:17.898Z,92.59
2017-11-17T10:55:44.021Z,92.87
2017-11-17T10:58:10.137Z,92.86
2017-11-17T11:00:36.481Z,92.54
2017-11-17T11:03:02.581Z,91.77
2017-11-17T11:05:29.411Z,90.81
2017-11-17T11:07:55.820Z,90.74
2017-11-17T11:10:22.046Z,90.80
2017-11-17T11:12:48.103Z,91.29
2017-11-17T11:15:14.655Z,91.49
2017-11-17T11:17:40.943Z,91.66
2017-11-17T11:20:07.064Z,91.77
2017-11-17T11:22:33.594Z,92.51
2017-11-17T11:24:59.712Z,91.58
2017-11-17T11:27:25.962Z,91.46
2017-11-17T11:29:52.497Z,91.90
2017-11-17T11:32:18.609Z,91.42
2017-11-17T11:34:44.729Z,91.35
2017-11-17T11:37:11.267Z,92.04
2017-11-17T11:39:37.365Z,92.89
2017-11-17T11:42:03.480Z,93.11
2017-11-17T11:44:29.599Z,93.47
2017-11-17T11:46:55.684Z,93.05
2017-11-17T11:49:22.323Z,92.54
2017-11-17T11:51:48.407Z,93.26
2017-11-17T11:54:14.559Z,93.62
2017-11-17T11:56:40.669Z,93.95
2017-11-17T11:59:06.799Z,93.45
2017-11-17T12:01:33.351Z,93.07
2017-11-17T12:03:59.536Z,92.89
2017-11-17T12:06:25.665Z,93.67
2017-11-17T12:08:52.108Z,92.20
2017-11-17T12:11:18.258Z,90.72
2017-11-17T12:13:44.352Z,91.38
2017-11-17T12:16:10.802Z,91.60
2017-11-17T12:18:36.928Z,91.13
2017-11-17T12:21:03.064Z,91.51
2017-11-17T12:23:29.197Z,91.85
2017-11-17T12:25:55.293Z,91.93
2017-11-17T12:28:21.843Z,91.67
2017-11-17T12:30:48.128Z,92.06
2017-11-17T12:33:14.238Z,92.16
2017-11-17T12:35:40.598Z,90.92
2017-11-17T12:38:06.745Z,90.54
2017-11-17T12:40:32.823Z,90.46
2017-11-17T12:42:58.958Z,91.36
2017-11-17T12:45:25.307Z,92.16
2017-11-17T12:47:51.712Z,92.55
2017-11-17T12:50:17.862Z,92.91
2017-11-17T12:52:43.975Z,92.58
2017-11-17T12:55:10.185Z,92.30
2017-11-17T12:57:36.367Z,92.56
2017-11-17T13:00:02.599Z,91.84
2017-11-17T13:02:28.746Z,91.54
2017-11-17T13:04:54.907Z,92.65
2017-11-17T13:07:21.047Z,92.73
2017-11-17T13:09:47.164Z,92.88
2017-11-17T13:12:13.314Z,93.21
2017-11-17T13:14:39.694Z,93.41
2017-11-17T13:17:05.848Z,93.65
2017-11-17T13:19:32.003Z,93.21
2017-11-17T13:21:58.127Z,93.20
2017-11-17T13:24:24.353Z,92.88
2017-11-17T13:26:50.554Z,92.59
2017-11-17T13:29:17.461Z,92.97
2017-11-17T13:31:43.907Z,93.38
2017-11-17T13:34:10.170Z,93.38
2017-11-17T13:36:36.382Z,92.76
2017-11-17T13:39:02.534Z,93.55
2017-11-17T13:41:28.790Z,93.97
2017-11-17T13:43:55.054Z,93.80
2017-11-17T13:46:21.229Z,93.15
2017-11-17T13:48:48.647Z,92.75
2017-11-17T13:51:14.899Z,92.04
2017-11-17T13:53:41.098Z,93.05
2017-11-17T13:56:07.564Z,93.39
2017-11-17T13:58:33.811Z,93.38
2017-11-17T14:01:00.080Z,93.14
2017-11-17T14:03:26.325Z,93.55
2017-11-17T14:05:52.587Z,94.02
2017-11-17T14:08:18.804Z,94.26
2017-11-17T14:10:45.096Z,93.91
2017-11-17T14:13:11.276Z,93.76
2017-11-17T14:15:37.475Z,93.46
2017-11-17T14:18:03.786Z,93.37
2017-11-17T14:20:30.145Z,93.38
2017-11-17T14:22:56.332Z,93.31
2017-11-17T14:25:22.625Z,93.38
2017-11-17T14:27:48.896Z,93.27
2017-11-17T14:30:15.125Z,93.16
2017-11-17T14:32:41.370Z,93.31
2017-11-17T14:35:07.873Z,93.25
2017-11-17T14:37:34.148Z,93.37
2017-11-17T14:40:00.364Z,93.46
2017-11-17T14:42:26.602Z,93.24
2017-11-17T14:44:52.856Z,93.17
2017-11-17T14:47:19.139Z,93.36
2017-11-17T14:49:45.402Z,93.31
2017-11-17T14:52:11.746Z,92.58
2017-11-17T14:54:38.026Z,91.25
2017-11-17T14:57:04.248Z,91.26
2017-11-17T14:59:30.510Z,92.09
2017-11-17T15:01:56.767Z,92.54
2017-11-17T15:04:22.964Z,92.84
2017-11-17T15:06:49.220Z,93.15
2017-11-17T15:09:15.485Z,93.09
2017-11-17T15:11:41.795Z,92.88
2017-11-17T15:14:08.089Z,93.17
2017-11-17T15:16:34.344Z,93.23
2017-11-17T15:19:00.588Z,93.21
2017-11-17T15:21:26.792Z,93.40
2017-11-17T15:23:53.080Z,93.44
2017-11-17T15:26:19.885Z,93.60
2017-11-17T15:28:46.128Z,93.39
2017-11-17T15:31:12.426Z,92.93
2017-11-17T15:33:38.721Z,93.05
2017-11-17T15:36:04.976Z,92.93
2017-11-17T15:38:31.346Z,93.19
2017-11-17T15:40:57.593Z,93.19
2017-11-17T15:43:23.855Z,92.96
2017-11-17T15:45:50.123Z,93.32
2017-11-17T15:48:16.318Z,93.50
2017-11-17T15:50:42.661Z,93.76
2017-11-17T15:53:08.893Z,93.62
2017-11-17T15:55:35.127Z,93.84
2017-11-17T15:58:01.317Z,93.91
2017-11-17T16:00:27.512Z,93.32
2017-11-17T16:02:57.318Z,92.30
2017-11-17T16:15:08.642Z,93.95
2017-11-17T16:17:36.526Z,93.74
2017-11-17T16:20:06.565Z,93.80
2017-11-17T16:22:32.828Z,93.92
2017-11-17T16:25:00.429Z,93.93
2017-11-17T16:27:27.581Z,93.63
2017-11-17T16:29:54.251Z,93.78
2017-11-17T16:32:20.958Z,93.95
2017-11-17T16:34:48.168Z,94.42
2017-11-17T16:37:14.561Z,94.40
2017-11-17T16:39:41.761Z,94.72
2017-11-17T16:42:08.872Z,95.01
2017-11-17T16:44:36.134Z,95.01
2017-11-17T16:47:02.782Z,95.23
2017-11-17T16:49:29.903Z,95.29
2017-11-17T16:51:56.641Z,95.27
2017-11-17T16:54:22.960Z,95.15
2017-11-17T16:56:49.215Z,94.78
2017-11-17T16:59:15.431Z,94.62
2017-11-17T17:01:41.642Z,94.62
2017-11-17T17:04:07.855Z,94.61
2017-11-17T17:06:34.100Z,94.44
2017-11-17T17:09:00.423Z,94.43
2017-11-17T17:11:26.836Z,94.13
2017-11-17T17:13:53.054Z,94.79
2017-11-17T17:16:19.296Z,94.87
2017-11-17T17:18:45.498Z,95.01
2017-11-17T17:21:11.864Z,95.38
2017-11-17T17:23:38.129Z,95.25
2017-11-17T17:26:16.177Z,95.23
2017-11-17T17:28:42.486Z,95.37
2017-11-17T17:31:08.733Z,95.35
2017-11-17T17:33:34.998Z,95.36
2017-11-17T17:36:01.304Z,95.34
2017-11-17T17:38:27.558Z,95.47
2017-11-17T17:40:55.162Z,95.10
2017-11-17T17:43:21.484Z,95.18
2017-11-17T17:45:48.736Z,94.93
2017-11-17T17:48:14.970Z,94.67
2017-11-17T17:50:41.652Z,94.62
2017-11-17T17:53:08.011Z,94.98
2017-11-17T17:55:34.257Z,95.00
2017-11-17T17:58:00.521Z,94.95
2017-11-17T18:00:26.744Z,95.22
2017-11-17T18:02:52.982Z,95.02
2017-11-17T18:05:19.299Z,95.16
2017-11-17T18:07:45.647Z,95.22
2017-11-17T18:10:11.916Z,95.09
2017-11-17T18:12:38.205Z,94.88
2017-11-17T18:15:05.209Z,95.22
2017-11-17T18:17:31.463Z,94.83
2017-11-17T18:19:57.800Z,95.08
2017-11-17T18:22:24.048Z,95.01
2017-11-17T18:24:50.389Z,95.19
2017-11-17T18:27:16.589Z,95.46
2017-11-17T18:29:42.814Z,95.23
2017-11-17T18:32:09.086Z,95.53
2017-11-17T18:34:35.224Z,95.17
2017-11-17T18:37:01.448Z,95.00
2017-11-17T18:39:28.067Z,95.07
2017-11-17T18:41:54.338Z,95.04
2017-11-17T18:44:20.731Z,95.26
2017-11-17T18:46:46.959Z,95.32
2017-11-17T18:49:13.219Z,95.33
2017-11-17T18:51:39.369Z,95.24
2017-11-17T18:54:05.725Z,95.05
2017-11-17T18:56:32.082Z,94.85
2017-11-17T18:58:58.279Z,94.94
2017-11-17T19:01:24.544Z,95.01
2017-11-17T19:03:50.874Z,95.21
2017-11-17T19:06:17.146Z,95.28
2017-11-17T19:08:43.493Z,95.18
2017-11-17T19:11:09.864Z,95.26
2017-11-17T19:13:36.172Z,95.24
2017-11-17T19:16:02.698Z,95.55
2017-11-17T19:18:29.190Z,95.71
2017-11-17T19:20:55.612Z,95.55
2017-11-17T19:23:22.012Z,95.51
2017-11-17T19:25:48.455Z,95.44
2017-11-17T19:28:17.910Z,95.40
2017-11-17T19:30:44.347Z,95.47
2017-11-17T19:33:10.737Z,95.52
2017-11-17T19:35:37.101Z,95.50
2017-11-17T19:38:06.138Z,95.75
2017-11-17T19:40:32.708Z,95.62
2017-11-17T19:42:59.124Z,95.69
2017-11-17T19:45:25.539Z,95.85
2017-11-17T19:47:52.017Z,96.09
2017-11-17T19:50:18.412Z,96.22
2017-11-17T19:52:44.865Z,96.09
2017-11-17T19:55:11.313Z,96.13
2017-11-17T19:57:37.717Z,96.05
2017-11-17T20:00:05.679Z,95.16
2017-11-17T20:02:32.078Z,94.95
2017-11-17T20:05:15.831Z,95.41
2017-11-17T20:07:42.343Z,95.55
2017-11-17T20:10:08.862Z,95.87
2017-11-17T20:12:35.343Z,95.75
2017-11-17T20:15:02.740Z,95.85
2017-11-17T20:17:29.200Z,95.79
2017-11-17T20:19:55.668Z,95.67
2017-11-17T20:22:22.183Z,95.72
2017-11-17T20:24:48.675Z,95.96
2017-11-17T20:27:15.685Z,95.96
2017-11-17T20:29:42.141Z,95.88
2017-11-17T20:32:16.965Z,95.84
2017-11-17T20:34:43.610Z,95.92
2017-11-17T20:37:10.426Z,95.98
2017-11-17T20:39:36.967Z,95.76
2017-11-17T20:42:15.023Z,95.68
2017-11-17T20:44:41.515Z,94.72
2017-11-17T20:47:07.958Z,93.95
2017-11-17T20:49:34.580Z,93.51
2017-11-17T20:52:01.749Z,93.35
2017-11-17T20:54:28.196Z,93.97
2017-11-17T20:56:55.637Z,94.73
2017-11-17T20:59:22.183Z,95.27
2017-11-17T21:01:48.753Z,95.48
2017-11-17T21:04:15.192Z,95.50
2017-11-17T21:06:41.677Z,95.81
2017-11-17T21:09:08.186Z,95.74
2017-11-17T21:11:34.684Z,95.62
2017-11-17T21:14:02.078Z,95.39
2017-11-17T21:16:29.405Z,95.73
2017-11-17T21:18:56.042Z,95.85
2017-11-17T21:21:22.949Z,95.92
2017-11-17T21:23:50.160Z,95.74
2017-11-17T21:26:16.763Z,95.88
2017-11-17T21:28:44.529Z,96.04
2017-11-17T21:31:11.976Z,96.11
2017-11-17T21:33:39.308Z,96.08
2017-11-17T21:36:18.816Z,96.44
2017-11-17T21:38:48.868Z,96.54
2017-11-17T21:41:15.215Z,96.57
2017-11-17T21:43:41.597Z,96.44
2017-11-17T21:46:07.962Z,96.59
2017-11-17T21:48:34.362Z,97.05
2017-11-17T21:51:00.722Z,97.13
2017-11-17T21:53:26.999Z,97.46
2017-11-17T21:55:53.466Z,97.31
2017-11-17T21:58:20.795Z,97.51
2017-11-17T22:00:47.158Z,97.67
2017-11-17T22:03:13.494Z,97.95
2017-11-17T22:05:39.770Z,98.04
2017-11-17T22:08:06.184Z,98.04
2017-11-17T22:10:32.360Z,98.12
2017-11-17T22:12:58.596Z,97.84
2017-11-17T22:15:24.882Z,97.52
2017-11-17T22:17:51.130Z,97.00
2017-11-17T22:20:17.547Z,96.75
2017-11-17T22:22:43.887Z,96.87
2017-11-17T22:25:10.272Z,97.36
2017-11-17T22:27:36.521Z,97.11
2017-11-17T22:30:09.627Z,96.73
2017-11-17T22:32:36.043Z,96.28
2017-11-17T22:35:02.514Z,95.84
2017-11-17T22:37:28.872Z,96.04
2017-11-17T22:39:55.105Z,95.85
2017-11-17T22:42:21.308Z,95.54
2017-11-17T22:44:47.582Z,95.65
2017-11-17T22:47:14.317Z,96.17
2017-11-17T22:49:40.552Z,96.62
2017-11-17T22:52:07.109Z,96.69
2017-11-17T22:54:33.367Z,96.32
2017-11-17T22:56:59.619Z,96.31
2017-11-17T22:59:26.763Z,96.09
2017-11-17T23:01:53.024Z,95.97
2017-11-17T23:04:19.418Z,96.35
2017-11-17T23:06:45.703Z,96.15
2017-11-17T23:09:12.003Z,95.80
2017-11-17T23:11:38.571Z,95.35
2017-11-17T23:14:04.913Z,96.14
2017-11-17T23:16:31.153Z,96.13
2017-11-17T23:18:58.077Z,95.19
2017-11-17T23:21:24.588Z,94.61
2017-11-17T23:23:51.062Z,94.35
2017-11-17T23:26:17.560Z,94.06
2017-11-17T23:28:44.249Z,94.05
2017-11-17T23:31:12.108Z,94.12
2017-11-17T23:33:39.001Z,94.59
2017-11-17T23:36:05.324Z,94.41
2017-11-17T23:38:31.516Z,94.46
2017-11-17T23:40:57.752Z,94.41
2017-11-17T23:43:23.921Z,94.05
2017-11-17T23:45:50.128Z,93.90
2017-11-17T23:48:16.277Z,94.13
2017-11-17T23:50:42.442Z,94.06
2017-11-17T23:53:08.674Z,93.73
2017-11-17T23:55:34.909Z,94.44
2017-11-17T23:58:01.112Z,95.52
